sensor_id;sensor_type;location;lat;lon;timestamp;pressure;altitude;pressure_sealevel;temperature;humidity
74905;BME280;63465;50.862;6.220;2024-03-02T00:00:00;98165.25;;;8.71;56.46
74905;BME280;63465;50.862;6.220;2024-03-02T00:02:25;98172.16;;;8.70;56.39
74905;BME280;63465;50.862;6.220;2024-03-02T00:04:51;98163.44;;;8.74;56.39
74905;BME280;63465;50.862;6.220;2024-03-02T00:07:17;98172.91;;;8.74;56.71
74905;BME280;63465;50.862;6.220;2024-03-02T00:09:42;98186.56;;;8.77;56.50
74905;BME280;63465;50.862;6.220;2024-03-02T00:12:08;98182.34;;;8.75;56.67
74905;BME280;63465;50.862;6.220;2024-03-02T00:14:33;98163.44;;;8.74;56.81
74905;BME280;63465;50.862;6.220;2024-03-02T00:16:58;98172.03;;;8.75;56.74
74905;BME280;63465;50.862;6.220;2024-03-02T00:19:24;98178.91;;;8.74;56.90
74905;BME280;63465;50.862;6.220;2024-03-02T00:21:50;98179.94;;;8.69;57.31
74905;BME280;63465;50.862;6.220;2024-03-02T00:24:21;98167.88;;;8.69;56.96
74905;BME280;63465;50.862;6.220;2024-03-02T00:26:49;98166.16;;;8.68;57.25
74905;BME280;63465;50.862;6.220;2024-03-02T00:29:16;98180.81;;;8.68;57.05
74905;BME280;63465;50.862;6.220;2024-03-02T00:31:43;98166.88;;;8.73;56.93
74905;BME280;63465;50.862;6.220;2024-03-02T00:34:08;98172.81;;;8.77;56.36
74905;BME280;63465;50.862;6.220;2024-03-02T00:36:36;98178.78;;;8.79;56.50
74905;BME280;63465;50.862;6.220;2024-03-02T00:39:02;98185.63;;;8.80;56.75
74905;BME280;63465;50.862;6.220;2024-03-02T00:41:29;98190.59;;;8.87;56.27
74905;BME280;63465;50.862;6.220;2024-03-02T00:43:59;98188.00;;;8.87;56.21
74905;BME280;63465;50.862;6.220;2024-03-02T00:46:29;98176.03;;;8.85;56.50
74905;BME280;63465;50.862;6.220;2024-03-02T00:49:00;98182.16;;;8.81;56.89
74905;BME280;63465;50.862;6.220;2024-03-02T00:51:33;98177.94;;;8.78;56.61
74905;BME280;63465;50.862;6.220;2024-03-02T00:54:00;98178.91;;;8.74;56.71
74905;BME280;63465;50.862;6.220;2024-03-02T00:56:29;98177.31;;;8.70;57.06
74905;BME280;63465;50.862;6.220;2024-03-02T00:58:54;98176.59;;;8.65;56.99
74905;BME280;63465;50.862;6.220;2024-03-02T01:01:19;98171.28;;;8.70;56.74
74905;BME280;63465;50.862;6.220;2024-03-02T01:03:45;98170.41;;;8.71;56.87
74905;BME280;63465;50.862;6.220;2024-03-02T01:06:11;98176.44;;;8.71;56.73
74905;BME280;63465;50.862;6.220;2024-03-02T01:08:36;98178.84;;;8.76;56.66
74905;BME280;63465;50.862;6.220;2024-03-02T01:11:03;98178.81;;;8.77;56.44
74905;BME280;63465;50.862;6.220;2024-03-02T01:13:28;98188.22;;;8.80;56.59
74905;BME280;63465;50.862;6.220;2024-03-02T01:15:54;98189.13;;;8.79;56.82
74905;BME280;63465;50.862;6.220;2024-03-02T01:18:19;98196.81;;;8.80;56.82
74905;BME280;63465;50.862;6.220;2024-03-02T01:20:45;98199.28;;;8.85;56.64
74905;BME280;63465;50.862;6.220;2024-03-02T01:23:10;98180.41;;;8.83;56.56
74905;BME280;63465;50.862;6.220;2024-03-02T01:25:36;98198.31;;;8.87;56.85
74905;BME280;63465;50.862;6.220;2024-03-02T01:28:01;98196.66;;;8.86;57.08
74905;BME280;63465;50.862;6.220;2024-03-02T01:30:27;98208.66;;;8.87;56.87
74905;BME280;63465;50.862;6.220;2024-03-02T01:32:52;98209.56;;;8.86;56.79
74905;BME280;63465;50.862;6.220;2024-03-02T01:35:17;98206.91;;;8.89;56.65
74905;BME280;63465;50.862;6.220;2024-03-02T01:37:42;98210.16;;;8.96;56.40
74905;BME280;63465;50.862;6.220;2024-03-02T01:40:08;98218.75;;;8.96;56.51
74905;BME280;63465;50.862;6.220;2024-03-02T01:42:38;98210.97;;;8.98;56.81
74905;BME280;63465;50.862;6.220;2024-03-02T01:45:08;98219.41;;;9.03;56.59
74905;BME280;63465;50.862;6.220;2024-03-02T01:47:33;98224.66;;;9.00;56.51
74905;BME280;63465;50.862;6.220;2024-03-02T01:49:59;98219.56;;;8.98;56.49
74905;BME280;63465;50.862;6.220;2024-03-02T01:52:25;98222.94;;;9.00;57.02
74905;BME280;63465;50.862;6.220;2024-03-02T01:54:50;98228.22;;;8.96;57.46
74905;BME280;63465;50.862;6.220;2024-03-02T01:57:16;98237.81;;;8.92;57.87
74905;BME280;63465;50.862;6.220;2024-03-02T01:59:42;98236.16;;;8.90;57.78
74905;BME280;63465;50.862;6.220;2024-03-02T02:02:07;98228.44;;;8.88;57.94
74905;BME280;63465;50.862;6.220;2024-03-02T02:04:33;98225.06;;;8.86;58.29
74905;BME280;63465;50.862;6.220;2024-03-02T02:06:59;98232.81;;;8.86;58.28
74905;BME280;63465;50.862;6.220;2024-03-02T02:09:25;98228.66;;;8.81;58.79
74905;BME280;63465;50.862;6.220;2024-03-02T02:11:51;98235.66;;;8.77;59.85
74905;BME280;63465;50.862;6.220;2024-03-02T02:14:16;98234.91;;;8.72;60.76
74905;BME280;63465;50.862;6.220;2024-03-02T02:16:41;98247.28;;;8.61;61.39
74905;BME280;63465;50.862;6.220;2024-03-02T02:19:07;98242.38;;;8.52;63.04
74905;BME280;63465;50.862;6.220;2024-03-02T02:21:33;98246.16;;;8.39;64.69
74905;BME280;63465;50.862;6.220;2024-03-02T02:23:58;98242.03;;;8.32;65.69
74905;BME280;63465;50.862;6.220;2024-03-02T02:26:24;98227.59;;;8.23;66.84
74905;BME280;63465;50.862;6.220;2024-03-02T02:28:49;98230.19;;;8.22;66.73
74905;BME280;63465;50.862;6.220;2024-03-02T02:31:15;98232.13;;;8.13;68.08
74905;BME280;63465;50.862;6.220;2024-03-02T02:33:41;98239.19;;;8.07;67.81
74905;BME280;63465;50.862;6.220;2024-03-02T02:36:06;98240.31;;;7.95;68.52
74905;BME280;63465;50.862;6.220;2024-03-02T02:38:34;98227.88;;;7.77;69.32
74905;BME280;63465;50.862;6.220;2024-03-02T02:41:02;98227.16;;;7.71;69.18
74905;BME280;63465;50.862;6.220;2024-03-02T02:43:27;98233.34;;;7.63;69.42
74905;BME280;63465;50.862;6.220;2024-03-02T02:45:52;98234.34;;;7.58;69.88
74905;BME280;63465;50.862;6.220;2024-03-02T02:48:18;98242.28;;;7.49;69.76
74905;BME280;63465;50.862;6.220;2024-03-02T02:50:43;98244.19;;;7.39;70.26
74905;BME280;63465;50.862;6.220;2024-03-02T02:53:08;98229.78;;;7.31;70.39
74905;BME280;63465;50.862;6.220;2024-03-02T02:55:35;98228.25;;;7.24;71.40
74905;BME280;63465;50.862;6.220;2024-03-02T02:58:02;98226.59;;;7.20;71.37
74905;BME280;63465;50.862;6.220;2024-03-02T03:00:27;98223.22;;;7.16;71.51
74905;BME280;63465;50.862;6.220;2024-03-02T03:02:53;98232.75;;;7.12;72.26
74905;BME280;63465;50.862;6.220;2024-03-02T03:05:18;98235.47;;;7.05;72.43
74905;BME280;63465;50.862;6.220;2024-03-02T03:07:44;98236.41;;;7.01;72.87
74905;BME280;63465;50.862;6.220;2024-03-02T03:10:10;98239.13;;;6.96;72.99
74905;BME280;63465;50.862;6.220;2024-03-02T03:12:35;98232.28;;;6.94;73.51
74905;BME280;63465;50.862;6.220;2024-03-02T03:15:01;98235.00;;;6.88;73.83
74905;BME280;63465;50.862;6.220;2024-03-02T03:17:28;98236.72;;;6.86;74.43
74905;BME280;63465;50.862;6.220;2024-03-02T03:19:53;98236.88;;;6.80;74.32
74905;BME280;63465;50.862;6.220;2024-03-02T03:22:19;98218.09;;;6.73;75.08
74905;BME280;63465;50.862;6.220;2024-03-02T03:24:45;98214.72;;;6.71;75.48
74905;BME280;63465;50.862;6.220;2024-03-02T03:27:11;98203.78;;;6.60;76.16
74905;BME280;63465;50.862;6.220;2024-03-02T03:29:36;98204.00;;;6.49;76.77
74905;BME280;63465;50.862;6.220;2024-03-02T03:32:02;98199.81;;;6.42;77.27
74905;BME280;63465;50.862;6.220;2024-03-02T03:34:28;98204.13;;;6.42;77.45
74905;BME280;63465;50.862;6.220;2024-03-02T03:36:54;98205.78;;;6.44;77.53
74905;BME280;63465;50.862;6.220;2024-03-02T03:39:19;98210.94;;;6.46;77.59
74905;BME280;63465;50.862;6.220;2024-03-02T03:41:44;98209.25;;;6.43;77.54
74905;BME280;63465;50.862;6.220;2024-03-02T03:44:10;98203.31;;;6.38;77.21
74905;BME280;63465;50.862;6.220;2024-03-02T03:46:35;98193.09;;;6.35;76.78
74905;BME280;63465;50.862;6.220;2024-03-02T03:49:00;98197.44;;;6.33;76.54
74905;BME280;63465;50.862;6.220;2024-03-02T03:51:26;98207.66;;;6.38;76.40
74905;BME280;63465;50.862;6.220;2024-03-02T03:53:51;98198.09;;;6.43;75.86
74905;BME280;63465;50.862;6.220;2024-03-02T03:56:16;98201.44;;;6.46;75.38
74905;BME280;63465;50.862;6.220;2024-03-02T03:58:42;98197.09;;;6.50;75.53
74905;BME280;63465;50.862;6.220;2024-03-02T04:01:07;98203.94;;;6.52;74.92
74905;BME280;63465;50.862;6.220;2024-03-02T04:03:33;98205.59;;;6.55;74.82
74905;BME280;63465;50.862;6.220;2024-03-02T04:05:58;98211.56;;;6.57;73.99
74905;BME280;63465;50.862;6.220;2024-03-02T04:08:24;98200.22;;;6.65;73.24
74905;BME280;63465;50.862;6.220;2024-03-02T04:10:49;98193.19;;;6.75;72.05
74905;BME280;63465;50.862;6.220;2024-03-02T04:13:14;98197.38;;;6.81;71.53
74905;BME280;63465;50.862;6.220;2024-03-02T04:15:39;98193.00;;;6.84;71.74
74905;BME280;63465;50.862;6.220;2024-03-02T04:18:06;98203.88;;;6.97;68.74
74905;BME280;63465;50.862;6.220;2024-03-02T04:20:31;98210.56;;;7.05;68.73
74905;BME280;63465;50.862;6.220;2024-03-02T04:22:56;98197.63;;;7.08;68.66
74905;BME280;63465;50.862;6.220;2024-03-02T04:25:22;98195.81;;;7.13;67.99
74905;BME280;63465;50.862;6.220;2024-03-02T04:27:47;98210.31;;;7.18;68.52
74905;BME280;63465;50.862;6.220;2024-03-02T04:30:12;98215.50;;;7.16;68.38
74905;BME280;63465;50.862;6.220;2024-03-02T04:32:38;98208.66;;;7.15;68.41
74905;BME280;63465;50.862;6.220;2024-03-02T04:35:04;98221.56;;;7.13;69.01
74905;BME280;63465;50.862;6.220;2024-03-02T04:37:30;98224.06;;;7.18;68.44
74905;BME280;63465;50.862;6.220;2024-03-02T04:39:56;98224.16;;;7.12;68.60
74905;BME280;63465;50.862;6.220;2024-03-02T04:42:21;98226.66;;;7.16;68.96
74905;BME280;63465;50.862;6.220;2024-03-02T04:44:47;98229.22;;;7.16;69.10
74905;BME280;63465;50.862;6.220;2024-03-02T04:47:13;98237.03;;;7.13;68.48
74905;BME280;63465;50.862;6.220;2024-03-02T04:49:38;98235.22;;;7.17;68.73
74905;BME280;63465;50.862;6.220;2024-03-02T04:52:04;98224.06;;;7.16;67.77
74905;BME280;63465;50.862;6.220;2024-03-02T04:54:29;98227.47;;;7.19;67.46
74905;BME280;63465;50.862;6.220;2024-03-02T04:56:54;98243.69;;;7.24;66.99
74905;BME280;63465;50.862;6.220;2024-03-02T04:59:20;98232.56;;;7.22;67.43
74905;BME280;63465;50.862;6.220;2024-03-02T05:01:45;98231.78;;;7.16;67.77
74905;BME280;63465;50.862;6.220;2024-03-02T05:04:12;98232.75;;;7.12;67.67
74905;BME280;63465;50.862;6.220;2024-03-02T05:06:38;98224.22;;;7.10;67.57
74905;BME280;63465;50.862;6.220;2024-03-02T05:09:09;98226.81;;;7.09;67.99
74905;BME280;63465;50.862;6.220;2024-03-02T05:11:35;98230.31;;;7.06;67.47
74905;BME280;63465;50.862;6.220;2024-03-02T05:14:04;98239.75;;;7.06;67.62
74905;BME280;63465;50.862;6.220;2024-03-02T05:16:33;98245.75;;;7.06;67.39
74905;BME280;63465;50.862;6.220;2024-03-02T05:18:59;98238.78;;;7.11;67.46
74905;BME280;63465;50.862;6.220;2024-03-02T05:21:24;98245.66;;;7.11;67.34
74905;BME280;63465;50.862;6.220;2024-03-02T05:23:49;98249.97;;;7.10;67.45
74905;BME280;63465;50.862;6.220;2024-03-02T05:26:15;98242.09;;;7.16;67.45
74905;BME280;63465;50.862;6.220;2024-03-02T05:28:40;98244.72;;;7.15;66.71
74905;BME280;63465;50.862;6.220;2024-03-02T05:31:05;98248.09;;;7.19;66.93
74905;BME280;63465;50.862;6.220;2024-03-02T05:33:31;98243.88;;;7.14;66.78
74905;BME280;63465;50.862;6.220;2024-03-02T05:35:58;98246.47;;;7.14;66.38
74905;BME280;63465;50.862;6.220;2024-03-02T05:38:23;98244.78;;;7.12;66.94
74905;BME280;63465;50.862;6.220;2024-03-02T05:40:49;98246.63;;;7.07;66.71
74905;BME280;63465;50.862;6.220;2024-03-02T05:43:14;98253.50;;;7.05;67.08
74905;BME280;63465;50.862;6.220;2024-03-02T05:45:39;98259.50;;;7.07;67.18
74905;BME280;63465;50.862;6.220;2024-03-02T05:48:07;98248.19;;;7.14;66.70
74905;BME280;63465;50.862;6.220;2024-03-02T05:50:32;98253.34;;;7.14;66.04
74905;BME280;63465;50.862;6.220;2024-03-02T05:52:58;98261.97;;;7.11;66.14
74905;BME280;63465;50.862;6.220;2024-03-02T05:55:24;98259.44;;;7.10;66.36
74905;BME280;63465;50.862;6.220;2024-03-02T05:57:49;98273.09;;;7.13;66.37
74905;BME280;63465;50.862;6.220;2024-03-02T06:00:28;98273.09;;;7.13;65.75
74905;BME280;63465;50.862;6.220;2024-03-02T06:02:53;98269.56;;;7.18;66.25
74905;BME280;63465;50.862;6.220;2024-03-02T06:05:18;98262.81;;;7.12;66.31
74905;BME280;63465;50.862;6.220;2024-03-02T06:07:44;98255.13;;;7.10;66.18
74905;BME280;63465;50.862;6.220;2024-03-02T06:10:09;98257.78;;;7.07;66.02
74905;BME280;63465;50.862;6.220;2024-03-02T06:12:36;98273.19;;;7.09;66.21
74905;BME280;63465;50.862;6.220;2024-03-02T06:15:01;98268.94;;;7.06;66.34
74905;BME280;63465;50.862;6.220;2024-03-02T06:17:26;98267.25;;;7.05;66.19
74905;BME280;63465;50.862;6.220;2024-03-02T06:19:52;98266.38;;;7.06;66.08
74905;BME280;63465;50.862;6.220;2024-03-02T06:22:17;98262.06;;;7.07;66.01
74905;BME280;63465;50.862;6.220;2024-03-02T06:24:44;98273.09;;;7.12;65.93
74905;BME280;63465;50.862;6.220;2024-03-02T06:27:09;98281.69;;;7.12;66.33
74905;BME280;63465;50.862;6.220;2024-03-02T06:29:34;98285.09;;;7.14;66.06
74905;BME280;63465;50.862;6.220;2024-03-02T06:32:00;98291.03;;;7.18;65.91
74905;BME280;63465;50.862;6.220;2024-03-02T06:34:25;98272.22;;;7.14;66.27
74905;BME280;63465;50.862;6.220;2024-03-02T06:36:51;98273.06;;;7.15;66.04
74905;BME280;63465;50.862;6.220;2024-03-02T06:39:16;98291.91;;;7.17;66.23
74905;BME280;63465;50.862;6.220;2024-03-02T06:41:41;98285.97;;;7.13;65.66
74905;BME280;63465;50.862;6.220;2024-03-02T06:44:12;98288.56;;;7.12;65.40
74905;BME280;63465;50.862;6.220;2024-03-02T06:46:37;98291.13;;;7.13;65.46
74905;BME280;63465;50.862;6.220;2024-03-02T06:49:02;98291.91;;;7.17;64.84
74905;BME280;63465;50.862;6.220;2024-03-02T06:51:29;98292.78;;;7.16;64.68
74905;BME280;63465;50.862;6.220;2024-03-02T06:53:54;98294.47;;;7.19;65.03
74905;BME280;63465;50.862;6.220;2024-03-02T06:56:20;98302.25;;;7.15;65.15
74905;BME280;63465;50.862;6.220;2024-03-02T06:58:45;98291.91;;;7.17;64.97
74905;BME280;63465;50.862;6.220;2024-03-02T07:01:11;98300.47;;;7.19;65.34
74905;BME280;63465;50.862;6.220;2024-03-02T07:03:36;98295.34;;;7.16;65.35
74905;BME280;63465;50.862;6.220;2024-03-02T07:06:02;98302.25;;;7.15;64.58
74905;BME280;63465;50.862;6.220;2024-03-02T07:08:28;98303.06;;;7.18;64.46
74905;BME280;63465;50.862;6.220;2024-03-02T07:10:53;98309.72;;;7.28;64.66
74905;BME280;63465;50.862;6.220;2024-03-02T07:13:18;98319.91;;;7.35;64.02
74905;BME280;63465;50.862;6.220;2024-03-02T07:15:44;98318.84;;;7.44;63.76
74905;BME280;63465;50.862;6.220;2024-03-02T07:18:27;98334.44;;;7.38;63.48
74905;BME280;63465;50.862;6.220;2024-03-02T07:20:53;98334.44;;;7.38;64.31
74905;BME280;63465;50.862;6.220;2024-03-02T07:23:18;98333.50;;;7.42;63.70
74905;BME280;63465;50.862;6.220;2024-03-02T07:25:45;98337.81;;;7.41;63.59
74905;BME280;63465;50.862;6.220;2024-03-02T07:28:10;98340.41;;;7.40;63.87
74905;BME280;63465;50.862;6.220;2024-03-02T07:30:36;98341.31;;;7.39;64.08
74905;BME280;63465;50.862;6.220;2024-03-02T07:33:03;98343.81;;;7.40;63.90
74905;BME280;63465;50.862;6.220;2024-03-02T07:35:29;98343.75;;;7.45;63.84
74905;BME280;63465;50.862;6.220;2024-03-02T07:37:56;98346.25;;;7.48;63.29
74905;BME280;63465;50.862;6.220;2024-03-02T07:40:22;98347.94;;;7.50;62.82
74905;BME280;63465;50.862;6.220;2024-03-02T07:42:47;98346.34;;;7.43;63.77
74905;BME280;63465;50.862;6.220;2024-03-02T07:45:13;98340.47;;;7.37;64.30
74905;BME280;63465;50.862;6.220;2024-03-02T07:47:38;98340.56;;;7.32;64.60
74905;BME280;63465;50.862;6.220;2024-03-02T07:50:04;98341.50;;;7.28;64.96
74905;BME280;63465;50.862;6.220;2024-03-02T07:52:31;98343.34;;;7.23;64.62
74905;BME280;63465;50.862;6.220;2024-03-02T07:54:57;98352.66;;;7.29;64.66
74905;BME280;63465;50.862;6.220;2024-03-02T07:57:22;98353.50;;;7.29;64.68
74905;BME280;63465;50.862;6.220;2024-03-02T07:59:47;98344.03;;;7.31;64.49
74905;BME280;63465;50.862;6.220;2024-03-02T08:02:14;98339.44;;;7.45;63.70
74905;BME280;63465;50.862;6.220;2024-03-02T08:04:40;98340.91;;;7.57;63.87
74905;BME280;63465;50.862;6.220;2024-03-02T08:07:06;98349.16;;;7.73;63.33
74905;BME280;63465;50.862;6.220;2024-03-02T08:09:31;98340.31;;;7.84;62.17
74905;BME280;63465;50.862;6.220;2024-03-02T08:11:56;98347.81;;;7.95;62.15
74905;BME280;63465;50.862;6.220;2024-03-02T08:14:24;98344.09;;;8.06;61.41
74905;BME280;63465;50.862;6.220;2024-03-02T08:16:50;98354.19;;;8.17;61.27
74905;BME280;63465;50.862;6.220;2024-03-02T08:19:15;98344.34;;;8.34;60.64
74905;BME280;63465;50.862;6.220;2024-03-02T08:21:41;98351.13;;;8.40;59.71
74905;BME280;63465;50.862;6.220;2024-03-02T08:24:07;98350.94;;;8.47;59.72
74905;BME280;63465;50.862;6.220;2024-03-02T08:26:33;98343.72;;;8.60;58.87
74905;BME280;63465;50.862;6.220;2024-03-02T08:28:59;98346.81;;;8.74;58.59
74905;BME280;63465;50.862;6.220;2024-03-02T08:31:26;98352.72;;;8.79;58.30
74905;BME280;63465;50.862;6.220;2024-03-02T08:33:52;98342.38;;;8.79;57.05
74905;BME280;63465;50.862;6.220;2024-03-02T08:36:17;98345.13;;;8.72;56.75
74905;BME280;63465;50.862;6.220;2024-03-02T08:38:42;98345.31;;;8.64;55.66
74905;BME280;63465;50.862;6.220;2024-03-02T08:41:09;98346.28;;;8.60;57.52
74905;BME280;63465;50.862;6.220;2024-03-02T08:43:34;98345.19;;;8.70;57.11
74905;BME280;63465;50.862;6.220;2024-03-02T08:46:00;98347.84;;;8.67;57.14
74905;BME280;63465;50.862;6.220;2024-03-02T08:48:26;98355.97;;;8.86;57.54
74905;BME280;63465;50.862;6.220;2024-03-02T08:50:52;98358.03;;;8.73;57.12
74905;BME280;63465;50.862;6.220;2024-03-02T08:53:17;98353.72;;;8.72;57.16
74905;BME280;63465;50.862;6.220;2024-03-02T08:55:47;98347.03;;;8.65;56.38
74905;BME280;63465;50.862;6.220;2024-03-02T08:58:12;98351.63;;;8.54;57.17
74905;BME280;63465;50.862;6.220;2024-03-02T09:00:38;98356.81;;;8.52;57.65
74905;BME280;63465;50.862;6.220;2024-03-02T09:03:04;98344.75;;;8.53;57.54
74905;BME280;63465;50.862;6.220;2024-03-02T09:05:29;98351.41;;;8.63;57.54
74905;BME280;63465;50.862;6.220;2024-03-02T09:07:54;98344.53;;;8.62;58.21
74905;BME280;63465;50.862;6.220;2024-03-02T09:10:20;98346.16;;;8.66;56.43
74905;BME280;63465;50.862;6.220;2024-03-02T09:12:46;98346.06;;;8.69;56.64
74905;BME280;63465;50.862;6.220;2024-03-02T09:15:11;98353.63;;;8.77;56.33
74905;BME280;63465;50.862;6.220;2024-03-02T09:17:36;98352.63;;;8.82;56.46
74905;BME280;63465;50.862;6.220;2024-03-02T09:20:02;98350.50;;;8.98;56.25
74905;BME280;63465;50.862;6.220;2024-03-02T09:22:29;98348.34;;;9.14;55.34
74905;BME280;63465;50.862;6.220;2024-03-02T09:24:55;98342.56;;;9.35;54.92
74905;BME280;63465;50.862;6.220;2024-03-02T09:27:21;98346.41;;;9.52;54.58
74905;BME280;63465;50.862;6.220;2024-03-02T09:29:46;98347.78;;;9.64;53.36
74905;BME280;63465;50.862;6.220;2024-03-02T09:32:15;98349.44;;;9.67;52.13
74905;BME280;63465;50.862;6.220;2024-03-02T09:34:40;98347.91;;;9.60;52.83
74905;BME280;63465;50.862;6.220;2024-03-02T09:37:06;98344.91;;;9.73;52.92
74905;BME280;63465;50.862;6.220;2024-03-02T09:39:31;98341.13;;;9.85;51.82
74905;BME280;63465;50.862;6.220;2024-03-02T09:41:58;98334.81;;;9.93;51.23
74905;BME280;63465;50.862;6.220;2024-03-02T09:44:25;98334.91;;;9.90;50.61
74905;BME280;63465;50.862;6.220;2024-03-02T09:46:51;98339.34;;;9.87;50.70
74905;BME280;63465;50.862;6.220;2024-03-02T09:49:16;98346.50;;;9.77;50.44
74905;BME280;63465;50.862;6.220;2024-03-02T09:51:47;98342.09;;;9.81;50.26
74905;BME280;63465;50.862;6.220;2024-03-02T09:54:12;98342.41;;;9.99;50.45
74905;BME280;63465;50.862;6.220;2024-03-02T09:56:38;98344.94;;;10.30;50.33
74905;BME280;63465;50.862;6.220;2024-03-02T09:59:04;98342.81;;;11.42;46.63
74905;BME280;63465;50.862;6.220;2024-03-02T10:01:30;98337.50;;;12.36;44.09
74905;BME280;63465;50.862;6.220;2024-03-02T10:04:00;98337.13;;;13.28;41.98
74905;BME280;63465;50.862;6.220;2024-03-02T10:06:28;98335.44;;;14.20;39.12
74905;BME280;63465;50.862;6.220;2024-03-02T10:08:54;98327.88;;;14.16;39.68
74905;BME280;63465;50.862;6.220;2024-03-02T10:14:08;98326.91;;;14.89;38.80
74905;BME280;63465;50.862;6.220;2024-03-02T10:16:37;98314.00;;;15.03;37.91
74905;BME280;63465;50.862;6.220;2024-03-02T10:19:20;98315.81;;;15.52;37.52
74905;BME280;63465;50.862;6.220;2024-03-02T10:21:50;98303.19;;;15.92;36.57
74905;BME280;63465;50.862;6.220;2024-03-02T10:24:16;98304.63;;;15.16;37.41
74905;BME280;63465;50.862;6.220;2024-03-02T10:26:41;98311.84;;;15.28;37.47
74905;BME280;63465;50.862;6.220;2024-03-02T10:29:08;98307.78;;;15.55;37.88
74905;BME280;63465;50.862;6.220;2024-03-02T10:31:37;98297.38;;;15.87;37.22
74905;BME280;63465;50.862;6.220;2024-03-02T10:34:02;98288.75;;;15.53;36.16
74905;BME280;63465;50.862;6.220;2024-03-02T10:36:28;98296.06;;;15.30;37.50
74905;BME280;63465;50.862;6.220;2024-03-02T10:38:56;98299.53;;;16.41;36.59
74905;BME280;63465;50.862;6.220;2024-03-02T10:41:23;98280.63;;;16.36;35.37
74905;BME280;63465;50.862;6.220;2024-03-02T10:43:51;98286.84;;;15.40;36.46
74905;BME280;63465;50.862;6.220;2024-03-02T10:46:19;98298.28;;;15.86;35.90
74905;BME280;63465;50.862;6.220;2024-03-02T10:48:45;98295.16;;;15.63;35.98
74905;BME280;63465;50.862;6.220;2024-03-02T10:51:11;98291.69;;;15.30;37.09
74905;BME280;63465;50.862;6.220;2024-03-02T10:53:37;98286.25;;;15.17;37.05
74905;BME280;63465;50.862;6.220;2024-03-02T10:56:04;98286.53;;;14.96;37.32
74905;BME280;63465;50.862;6.220;2024-03-02T10:58:33;98286.53;;;14.96;38.10
74905;BME280;63465;50.862;6.220;2024-03-02T11:01:02;98285.06;;;15.07;37.31
74905;BME280;63465;50.862;6.220;2024-03-02T11:03:31;98277.91;;;15.28;36.92
74905;BME280;63465;50.862;6.220;2024-03-02T11:05:59;98279.28;;;14.68;38.03
74905;BME280;63465;50.862;6.220;2024-03-02T11:08:26;98283.34;;;14.73;37.68
74905;BME280;63465;50.862;6.220;2024-03-02T11:11:03;98286.53;;;14.96;37.20
74905;BME280;63465;50.862;6.220;2024-03-02T11:13:32;98298.56;;;14.98;37.56
74905;BME280;63465;50.862;6.220;2024-03-02T11:16:06;98295.09;;;15.32;36.09
74905;BME280;63465;50.862;6.220;2024-03-02T11:18:35;98289.34;;;15.58;36.53
74905;BME280;63465;50.862;6.220;2024-03-02T11:21:02;98288.09;;;15.81;36.26
74905;BME280;63465;50.862;6.220;2024-03-02T11:23:34;98291.63;;;15.64;36.26
74905;BME280;63465;50.862;6.220;2024-03-02T11:26:19;98284.31;;;15.71;35.71
74905;BME280;63465;50.862;6.220;2024-03-02T11:28:45;98281.78;;;15.85;35.82
74905;BME280;63465;50.862;6.220;2024-03-02T11:31:11;98267.03;;;16.61;34.42
74905;BME280;63465;50.862;6.220;2024-03-02T11:33:36;98262.13;;;16.39;34.78
74905;BME280;63465;50.862;6.220;2024-03-02T11:36:01;98262.13;;;16.39;35.07
74905;BME280;63465;50.862;6.220;2024-03-02T11:38:34;98254.78;;;16.00;34.81
74905;BME280;63465;50.862;6.220;2024-03-02T11:41:06;98265.59;;;15.79;35.83
74905;BME280;63465;50.862;6.220;2024-03-02T11:43:37;98259.78;;;15.41;37.32
74905;BME280;63465;50.862;6.220;2024-03-02T11:46:05;98260.19;;;14.50;38.62
74905;BME280;63465;50.862;6.220;2024-03-02T11:48:35;98255.44;;;13.87;40.60
74905;BME280;63465;50.862;6.220;2024-03-02T11:51:01;98261.75;;;13.26;42.39
74905;BME280;63465;50.862;6.220;2024-03-02T11:53:27;98252.25;;;13.25;42.57
74905;BME280;63465;50.862;6.220;2024-03-02T11:55:57;98238.72;;;13.36;42.49
74905;BME280;63465;50.862;6.220;2024-03-02T11:58:23;98232.03;;;13.12;42.22
74905;BME280;63465;50.862;6.220;2024-03-02T12:00:54;98234.00;;;12.87;43.04
74905;BME280;63465;50.862;6.220;2024-03-02T12:03:24;98223.31;;;12.93;43.15
74905;BME280;63465;50.862;6.220;2024-03-02T12:05:51;98224.13;;;12.95;43.62
74905;BME280;63465;50.862;6.220;2024-03-02T12:08:17;98211.09;;;13.15;43.60
74905;BME280;63465;50.862;6.220;2024-03-02T12:10:43;98207.81;;;13.30;43.68
74905;BME280;63465;50.862;6.220;2024-03-02T12:13:20;98206.59;;;13.37;42.91
74905;BME280;63465;50.862;6.220;2024-03-02T12:15:45;98213.97;;;13.27;43.27
74905;BME280;63465;50.862;6.220;2024-03-02T12:18:11;98201.88;;;13.45;43.11
74905;BME280;63465;50.862;6.220;2024-03-02T12:20:36;98212.56;;;13.20;42.49
74905;BME280;63465;50.862;6.220;2024-03-02T12:23:04;98209.97;;;13.20;43.45
74905;BME280;63465;50.862;6.220;2024-03-02T12:25:30;98206.38;;;13.23;43.67
74905;BME280;63465;50.862;6.220;2024-03-02T12:27:58;98197.81;;;13.21;42.78
74905;BME280;63465;50.862;6.220;2024-03-02T12:30:26;98198.78;;;13.56;42.63
74905;BME280;63465;50.862;6.220;2024-03-02T12:32:52;98201.44;;;13.90;41.02
74905;BME280;63465;50.862;6.220;2024-03-02T12:35:18;98191.94;;;13.72;41.46
74905;BME280;63465;50.862;6.220;2024-03-02T12:37:51;98198.34;;;13.65;42.07
74905;BME280;63465;50.862;6.220;2024-03-02T12:40:17;98194.25;;;13.59;42.30
74905;BME280;63465;50.862;6.220;2024-03-02T12:42:47;98196.53;;;13.29;43.52
74905;BME280;63465;50.862;6.220;2024-03-02T12:45:13;98196.59;;;13.65;44.25
74905;BME280;63465;50.862;6.220;2024-03-02T12:47:42;98174.09;;;13.82;43.01
74905;BME280;63465;50.862;6.220;2024-03-02T12:50:08;98194.28;;;13.41;43.81
74905;BME280;63465;50.862;6.220;2024-03-02T12:52:34;98196.09;;;13.20;44.21
74905;BME280;63465;50.862;6.220;2024-03-02T12:55:00;98201.09;;;13.24;44.42
74905;BME280;63465;50.862;6.220;2024-03-02T12:57:28;98201.13;;;13.04;45.28
74905;BME280;63465;50.862;6.220;2024-03-02T13:00:02;98170.53;;;12.72;45.71
74905;BME280;63465;50.862;6.220;2024-03-02T13:02:34;98195.50;;;12.56;46.04
74905;BME280;63465;50.862;6.220;2024-03-02T13:05:00;98189.38;;;12.57;46.61